AirNav   Bose Proflight Series 2 Wireless Aviation Headset
 
 542 users online  

49MO Hermann II Heliport
St Louis, Missouri, USA

GOING TO ST LOUIS?


FAA INFORMATION EFFECTIVE 07 NOVEMBER 2019

Location

FAA Identifier: 49MO
Lat/Long: 38-37-18.1880N 090-23-20.4220W
38-37.303133N 090-23.340367W
38.6217189,-90.3890061
(estimated)
Elevation: 590 ft. / 180 m (estimated)
Variation: 02E (1985)
Time zone: UTC -6 (UTC -5 during Daylight Saving Time)
Zip code: 63124

Heliport Operations

Heliport use: Private use. Permission required prior to landing
Activation date: 10/1979
Control tower: no
ARTCC: KANSAS CITY CENTER
FSS: SAINT LOUIS FLIGHT SERVICE STATION
Attendance: UNATNDD
Wind indicator: no
Segmented circle: no

Heliport Communications

WX ASOS at STL (8 nm N): PHONE 314-890-4790
WX ASOS at CPS (11 nm E): PHONE 618-332-0001
WX ASOS at SUS (13 nm W): 134.8 (314-890-7255)
WX ASOS at SET (19 nm N): 118.075 (636-250-4590)

Nearby radio navigation aids

VOR radial/distance  VOR name  Freq  Var
STLr162/15.0ST LOUIS VORTAC117.4001E
TOYr248/23.1TROY VORTAC116.0004E
FTZr094/27.6FORISTELL VORTAC110.8005E

 
NDB name  Hdg/Dist  Freq  Var  ID
EAVES115/8.122701WFZ ..-. --..
ZUMAY208/11.240401WST ... -
OBLIO160/11.433801WLM .-.. --
CIVIC MEMORIAL225/22.526301WCVM -.-. ...- --

Heliport Services

Runway Information

Helipad H1

Dimensions: 200 x 200 ft. / 61 x 61 m
Surface: turf
Latitude: 38-37.303167N
Longitude: 090-23.340333W
Elevation: 590.0 ft.
Traffic pattern: leftleft

Heliport Ownership and Management from official FAA records

Ownership: Privately-owned
Owner: MRS. ROBERT R. HERMANN
5 BRIDLE CREEK
ST LOUIS, MO 63124
Manager: Phone 314-429-7300

Heliport Operational Statistics

Aircraft based on the field: 1
Helicopters: 1
    

Additional Remarks

A52-H1 TREES 50' FROM THR; HILLS 150' FROM THR.
FOR CD CTC ST LOUIS APCH AT 314-890-1018.

Instrument Procedures

There are no published instrument procedures at 49MO.

Some nearby airports with instrument procedures:

KSTL - St Louis Lambert International Airport (8 nm N)
1H0 - Creve Coeur Airport (8 nm NW)
KCPS - St Louis Downtown Airport (11 nm E)
KSUS - Spirit of St Louis Airport (13 nm W)
KSET - St Charles County Smartt Airport (19 nm N)
 
Loc | Ops | Rwys | IFR | FBO | Links
Com | Nav | Svcs | Stats | Notes

Kansas City Aviation Department
 
Area around 49MO (Hermann II Heliport)
 
Road maps at: MapQuest Bing Google
 
Aerial photo
No photo
 
Sectional chart

 
Airport distance calculator
Flying to Hermann II Heliport? Find the distance to fly.

From to 49MO

Sunrise and sunset
Times for 20-Nov-2019
 Local
(UTC-6)
 Zulu
(UTC)
Morning civil twilight06:2112:21
Sunrise06:5012:50
Sunset16:4422:44
Evening civil twilight17:1323:13

Current date and time
Zulu (UTC)  20-Nov-2019 06:03:17
Local (UTC-6)  20-Nov-2019 00:03:17
 
METAR
KSTL 
8nm N 
200551Z 10006KT 10SM SCT250 03/02 A3006 RMK AO2 SLP180 T00330017 10094 20028 401440028 53018
KCPS 
12nm E 
200553Z AUTO 00000KT 10SM CLR 01/M01 A3006 RMK AO2 SLP180 T00111006 10078 20006 401440006 53021
KSUS 
12nm W 
200554Z AUTO 00000KT 10SM CLR 01/00 A3004 RMK AO2 SLP176 T00110000 10078 20006 401560006 53018
KSET 
19nm N 
200554Z AUTO A3006 RMK AO2 SLPNO 53020 PWINO FZRANO $
TAF
KSTL 
8nm N 
200535Z 2006/2112 11006KT P6SM FEW250 FM201900 15011KT P6SM BKN250 FM202000 15011G17KT P6SM SCT250 FM210600 17011G19KT 6SM -RA OVC040
KCPS 
12nm E 
200535Z 2006/2106 00000KT P6SM SKC FM202000 15011G17KT P6SM SCT250 FM210000 15012KT P6SM BKN250
KSUS 
12nm W 
200535Z 2006/2106 00000KT P6SM SKC FM202000 15011G16KT P6SM SCT250 FM210000 15012KT P6SM BKN250
NOTAMs
Click for the latest NOTAMs
NOTAMs are issued by the DoD/FAA and will open in a separate window not controlled by AirNav.

 

 
 

Would you like to see your business listed on this page?

 If your business provides an interesting product or service to pilots, flight crews, aircraft, or users of the Hermann II Heliport, you should consider listing it here.  To start the listing process, click on the button below
 
Add a business
 

Other Pages about Hermann II Heliport

Update a link
 
Copyright © AirNav, LLC. All rights reserved. Privacy Policy  Contact